createdAt,value
2022-12-18T00:00:10.449Z,33.10
2022-12-18T00:02:48.522Z,28.90
2022-12-18T00:05:16.725Z,32.08
2022-12-18T00:07:45.045Z,31.58
2022-12-18T00:10:15.214Z,30.90
2022-12-18T00:12:46.385Z,32.10
2022-12-18T00:15:14.591Z,34.42
2022-12-18T00:17:42.708Z,32.85
2022-12-18T00:20:13.025Z,32.83
2022-12-18T00:22:41.184Z,34.50
2022-12-18T00:25:10.254Z,31.80
2022-12-18T00:27:38.329Z,33.63
2022-12-18T00:30:07.441Z,29.55
2022-12-18T00:32:35.521Z,30.80
2022-12-18T00:35:04.505Z,31.63
2022-12-18T00:37:36.977Z,32.03
2022-12-18T00:40:07.338Z,32.13
2022-12-18T00:42:53.090Z,30.92
2022-12-18T00:45:21.197Z,31.80
2022-12-18T00:47:51.949Z,31.25
2022-12-18T00:50:20.798Z,31.08
2022-12-18T00:52:50.292Z,31.48
2022-12-18T00:55:18.740Z,30.90
2022-12-18T00:57:48.664Z,33.03
2022-12-18T01:00:17.461Z,29.73
2022-12-18T01:02:45.660Z,32.45
2022-12-18T01:05:15.393Z,29.85
2022-12-18T01:07:43.712Z,31.20
2022-12-18T01:10:14.972Z,31.73
2022-12-18T01:12:43.698Z,30.13
2022-12-18T01:15:13.681Z,28.88
2022-12-18T01:17:41.992Z,28.05
2022-12-18T01:20:12.227Z,28.73
2022-12-18T01:22:40.523Z,29.92
2022-12-18T01:25:10.074Z,30.17
2022-12-18T01:27:39.721Z,30.20
2022-12-18T01:30:09.342Z,30.08
2022-12-18T01:32:37.567Z,30.20
2022-12-18T01:35:06.577Z,30.10
2022-12-18T01:37:34.701Z,31.75
2022-12-18T01:40:02.833Z,31.48
2022-12-18T01:42:30.972Z,34.00
2022-12-18T01:45:04.844Z,34.28
2022-12-18T01:47:37.536Z,35.17
2022-12-18T01:50:10.057Z,38.72
2022-12-18T01:52:39.148Z,37.47
2022-12-18T01:55:09.114Z,38.08
2022-12-18T01:57:37.798Z,38.67
2022-12-18T02:00:13.035Z,40.20
2022-12-18T02:02:42.240Z,38.35
2022-12-18T02:05:12.260Z,40.70
2022-12-18T02:07:50.822Z,41.78
2022-12-18T02:10:23.143Z,41.20
2022-12-18T02:13:01.719Z,42.08
2022-12-18T02:15:38.137Z,40.58
2022-12-18T02:18:14.798Z,40.22
2022-12-18T02:20:46.824Z,41.90
2022-12-18T02:23:26.260Z,43.80
2022-12-18T02:26:12.568Z,43.67
2022-12-18T02:28:45.138Z,43.35
2022-12-18T02:31:18.480Z,43.85
2022-12-18T02:33:48.126Z,43.75
2022-12-18T02:36:19.372Z,45.15
2022-12-18T02:38:49.965Z,41.33
2022-12-18T02:41:20.895Z,43.63
2022-12-18T02:43:59.192Z,45.38
2022-12-18T02:46:32.579Z,45.90
2022-12-18T02:49:21.956Z,43.83
2022-12-18T02:51:54.710Z,47.17
2022-12-18T02:54:51.306Z,46.00
2022-12-18T02:57:31.597Z,42.63
2022-12-18T03:00:06.950Z,43.20
2022-12-18T03:02:40.902Z,43.38
2022-12-18T03:05:15.194Z,42.70
2022-12-18T03:07:49.637Z,40.85
2022-12-18T03:10:23.788Z,43.15
2022-12-18T03:12:58.068Z,41.22
2022-12-18T03:15:30.003Z,42.65
2022-12-18T03:18:11.067Z,43.25
2022-12-18T03:20:41.916Z,42.08
2022-12-18T03:23:13.959Z,39.42
2022-12-18T03:25:44.053Z,38.40
2022-12-18T03:28:16.945Z,38.30
2022-12-18T03:30:48.037Z,39.20
2022-12-18T03:33:20.628Z,37.22
2022-12-18T03:35:50.628Z,37.70
2022-12-18T03:38:20.587Z,37.45
2022-12-18T03:43:38.245Z,34.47
2022-12-18T03:46:13.002Z,34.83
2022-12-18T03:48:46.155Z,33.22
2022-12-18T03:51:24.588Z,35.63
2022-12-18T03:53:59.996Z,37.10
2022-12-18T03:56:37.304Z,36.22
2022-12-18T03:59:09.871Z,34.72
2022-12-18T04:01:42.532Z,34.95
2022-12-18T04:04:15.528Z,36.13
2022-12-18T04:06:47.399Z,32.75
2022-12-18T04:09:15.825Z,32.85
2022-12-18T04:11:48.964Z,31.20
2022-12-18T04:14:19.538Z,32.15
2022-12-18T04:16:51.663Z,32.75
2022-12-18T04:19:24.422Z,34.47
2022-12-18T04:21:54.672Z,32.63
2022-12-18T04:24:22.922Z,32.75
2022-12-18T04:27:05.258Z,32.55
2022-12-18T04:29:42.271Z,32.13
2022-12-18T04:32:12.353Z,31.25
2022-12-18T04:34:42.581Z,31.77
2022-12-18T04:37:10.733Z,32.42
2022-12-18T04:39:39.089Z,31.52
2022-12-18T04:42:13.108Z,33.03
2022-12-18T04:44:42.500Z,31.25
2022-12-18T04:47:10.652Z,33.50
2022-12-18T04:49:38.664Z,31.38
2022-12-18T04:52:06.855Z,34.00
2022-12-18T04:54:34.917Z,32.83
2022-12-18T04:57:02.954Z,32.22
2022-12-18T04:59:33.390Z,32.95
2022-12-18T05:02:02.899Z,32.38
2022-12-18T05:04:31.073Z,32.10
2022-12-18T05:06:59.237Z,31.02
2022-12-18T05:09:27.308Z,29.58
2022-12-18T05:11:55.636Z,31.15
2022-12-18T05:14:23.954Z,29.92
2022-12-18T05:16:53.286Z,30.23
2022-12-18T05:19:25.265Z,33.45
2022-12-18T05:21:53.392Z,32.20
2022-12-18T05:24:21.433Z,32.00
2022-12-18T05:26:49.490Z,33.30
2022-12-18T05:29:17.831Z,34.92
2022-12-18T05:31:46.065Z,34.03
2022-12-18T05:34:14.246Z,34.08
2022-12-18T05:36:44.063Z,35.63
2022-12-18T05:39:12.785Z,34.70
2022-12-18T05:41:40.839Z,37.72
2022-12-18T05:44:09.791Z,37.50
2022-12-18T05:46:38.649Z,37.17
2022-12-18T05:49:09.321Z,38.33
2022-12-18T05:51:38.385Z,35.80
2022-12-18T05:54:08.876Z,38.58
2022-12-18T05:56:36.954Z,36.53
2022-12-18T05:59:05.398Z,37.60
2022-12-18T06:01:33.548Z,38.72
2022-12-18T06:04:01.719Z,37.22
2022-12-18T06:06:30.540Z,37.88
2022-12-18T06:08:59.065Z,37.35
2022-12-18T06:11:28.915Z,40.10
2022-12-18T06:13:59.452Z,38.28
2022-12-18T06:16:29.347Z,36.73
2022-12-18T06:18:58.692Z,39.28
2022-12-18T06:21:27.596Z,40.42
2022-12-18T06:23:55.918Z,39.33
2022-12-18T06:26:28.092Z,39.17
2022-12-18T06:29:00.355Z,40.08
2022-12-18T06:31:28.546Z,39.00
2022-12-18T06:33:57.241Z,39.55
2022-12-18T06:36:25.542Z,40.40
2022-12-18T06:38:53.732Z,39.03
2022-12-18T06:41:23.148Z,37.15
2022-12-18T06:43:53.562Z,38.40
2022-12-18T06:48:53.742Z,36.88
2022-12-18T06:51:23.463Z,38.17
2022-12-18T06:53:51.748Z,37.03
2022-12-18T06:56:22.357Z,38.80
2022-12-18T06:58:53.204Z,40.00
2022-12-18T07:01:21.432Z,38.15
2022-12-18T07:03:55.457Z,38.92
2022-12-18T07:06:24.733Z,38.30
2022-12-18T07:08:53.843Z,38.92
2022-12-18T07:11:22.455Z,38.08
2022-12-18T07:13:50.710Z,36.80
2022-12-18T07:16:25.124Z,36.00
2022-12-18T07:18:56.368Z,38.28
2022-12-18T07:21:25.568Z,35.20
2022-12-18T07:23:53.948Z,39.10
2022-12-18T07:26:23.293Z,38.20
2022-12-18T07:28:52.127Z,35.55
2022-12-18T07:31:22.322Z,40.83
2022-12-18T07:33:51.449Z,35.90
2022-12-18T07:36:21.776Z,40.95
2022-12-18T07:38:53.710Z,38.28
2022-12-18T07:41:24.407Z,39.53
2022-12-18T07:43:52.457Z,38.60
2022-12-18T07:46:21.708Z,36.45
2022-12-18T07:48:50.537Z,37.10
2022-12-18T07:51:20.926Z,37.70
2022-12-18T07:53:49.482Z,37.42
2022-12-18T07:56:29.515Z,35.85
2022-12-18T07:58:58.536Z,38.10
2022-12-18T08:01:27.098Z,36.42
2022-12-18T08:03:55.571Z,38.28
2022-12-18T08:06:25.264Z,38.60
2022-12-18T08:08:54.527Z,37.78
2022-12-18T08:11:23.181Z,37.25
2022-12-18T08:13:51.378Z,34.30
2022-12-18T08:16:20.103Z,34.08
2022-12-18T08:18:49.523Z,35.03
2022-12-18T08:21:21.845Z,36.95
2022-12-18T08:23:52.380Z,34.30
2022-12-18T08:26:21.280Z,34.38
2022-12-18T08:28:50.850Z,35.25
2022-12-18T08:31:19.866Z,33.28
2022-12-18T08:33:51.542Z,35.72
2022-12-18T08:36:20.177Z,35.17
2022-12-18T08:38:52.647Z,31.40
2022-12-18T08:41:21.134Z,33.03
2022-12-18T08:44:07.025Z,32.08
2022-12-18T08:46:37.508Z,32.45
2022-12-18T08:49:06.511Z,33.22
2022-12-18T08:51:34.890Z,32.78
2022-12-18T08:54:07.292Z,34.33
2022-12-18T08:59:03.858Z,31.38
2022-12-18T09:01:32.281Z,32.65
2022-12-18T09:04:01.232Z,32.88
2022-12-18T09:06:29.454Z,34.65
2022-12-18T09:08:59.033Z,32.50
2022-12-18T09:11:31.799Z,34.70
2022-12-18T09:14:01.984Z,30.85
2022-12-18T09:16:33.040Z,32.33
2022-12-18T09:19:02.032Z,34.38
2022-12-18T09:21:34.268Z,34.60
2022-12-18T09:24:08.877Z,34.00
2022-12-18T09:26:38.972Z,32.78
2022-12-18T09:29:09.212Z,34.40
2022-12-18T09:31:40.770Z,31.07
2022-12-18T09:34:13.246Z,31.23
2022-12-18T09:36:41.567Z,31.05
2022-12-18T09:39:11.778Z,33.10
2022-12-18T09:41:54.435Z,33.67
2022-12-18T09:44:27.167Z,34.58
2022-12-18T09:47:19.113Z,34.55
2022-12-18T09:49:49.339Z,34.80
2022-12-18T09:52:23.657Z,34.72
2022-12-18T09:55:00.639Z,32.75
2022-12-18T09:57:35.389Z,36.17
2022-12-18T10:00:11.516Z,34.92
2022-12-18T10:02:39.769Z,34.42
2022-12-18T10:05:16.311Z,35.90
2022-12-18T10:07:57.204Z,34.10
2022-12-18T10:10:36.391Z,34.25
2022-12-18T10:13:13.446Z,39.45
2022-12-18T10:15:51.950Z,38.35
2022-12-18T10:18:31.388Z,38.00
2022-12-18T10:21:06.353Z,35.75
2022-12-18T10:23:48.151Z,35.33
2022-12-18T10:26:17.038Z,32.10
2022-12-18T10:28:48.041Z,34.08
2022-12-18T10:31:20.541Z,36.83
2022-12-18T10:33:48.979Z,36.53
2022-12-18T10:36:17.465Z,37.45
2022-12-18T10:38:45.527Z,38.35
2022-12-18T10:41:29.398Z,36.95
2022-12-18T10:44:20.198Z,36.53
2022-12-18T10:46:50.563Z,35.60
2022-12-18T10:49:25.274Z,38.17
2022-12-18T10:52:06.199Z,34.92
2022-12-18T10:54:37.264Z,36.67
2022-12-18T10:57:20.692Z,37.40
2022-12-18T10:59:55.914Z,36.78
2022-12-18T11:02:36.928Z,36.20
2022-12-18T11:05:24.656Z,37.00
2022-12-18T11:07:55.043Z,36.35
2022-12-18T11:10:25.586Z,43.35
2022-12-18T11:12:54.515Z,46.83
2022-12-18T11:15:28.813Z,42.88
2022-12-18T11:17:57.081Z,33.97
2022-12-18T11:20:33.932Z,48.33
2022-12-18T11:23:05.020Z,53.15
2022-12-18T11:25:35.986Z,37.17
2022-12-18T11:28:07.925Z,34.83
2022-12-18T11:30:38.885Z,32.17
2022-12-18T11:33:11.616Z,35.25
2022-12-18T11:35:46.467Z,34.92
2022-12-18T11:38:25.284Z,35.72
2022-12-18T11:40:58.723Z,35.00
2022-12-18T11:43:31.664Z,37.03
2022-12-18T11:46:06.416Z,34.42
2022-12-18T11:48:42.232Z,35.08
2022-12-18T11:51:16.906Z,34.45
2022-12-18T11:53:47.869Z,32.78
2022-12-18T11:56:31.889Z,33.17
2022-12-18T11:59:10.465Z,32.33
2022-12-18T12:01:50.929Z,32.40
2022-12-18T12:04:48.788Z,32.42
2022-12-18T12:07:36.097Z,32.42
2022-12-18T12:10:19.651Z,34.60
2022-12-18T12:15:32.531Z,32.70
2022-12-18T12:18:17.808Z,30.00
2022-12-18T12:20:55.717Z,31.95
2022-12-18T12:23:35.572Z,33.08
2022-12-18T12:26:08.633Z,33.28
2022-12-18T12:28:56.833Z,31.55
2022-12-18T12:31:35.801Z,30.70
2022-12-18T12:34:15.017Z,33.03
2022-12-18T12:36:52.996Z,32.00
2022-12-18T12:39:26.635Z,34.00
2022-12-18T12:42:15.907Z,35.33
2022-12-18T12:44:54.204Z,34.75
2022-12-18T12:47:28.741Z,35.58
2022-12-18T12:50:01.346Z,33.80
2022-12-18T12:52:35.027Z,34.20
2022-12-18T12:55:11.559Z,32.83
2022-12-18T12:57:47.526Z,30.73
2022-12-18T13:00:20.126Z,30.73
2022-12-18T13:02:56.502Z,31.38
2022-12-18T13:05:32.252Z,32.40
2022-12-18T13:08:07.561Z,33.45
2022-12-18T13:10:38.040Z,32.35
2022-12-18T13:16:07.622Z,31.73
2022-12-18T13:18:36.571Z,29.98
2022-12-18T13:21:19.966Z,32.55
2022-12-18T13:23:48.214Z,31.50
2022-12-18T13:26:36.796Z,33.47
2022-12-18T13:29:07.031Z,34.45
2022-12-18T13:32:22.570Z,33.90
2022-12-18T13:35:32.312Z,33.03
2022-12-18T13:38:02.002Z,33.45
2022-12-18T13:40:58.827Z,32.90
2022-12-18T13:43:34.941Z,33.35
2022-12-18T13:46:08.805Z,33.90
2022-12-18T13:48:41.379Z,35.17
2022-12-18T13:51:13.035Z,34.23
2022-12-18T13:53:52.665Z,32.17
2022-12-18T13:56:26.368Z,35.00
2022-12-18T13:59:17.404Z,36.70
2022-12-18T14:01:49.675Z,39.90
2022-12-18T14:04:27.695Z,38.00
2022-12-18T14:06:59.933Z,38.70
2022-12-18T14:09:33.090Z,40.05
2022-12-18T14:12:20.156Z,39.83
2022-12-18T14:14:55.012Z,38.83
2022-12-18T14:17:25.291Z,40.38
2022-12-18T14:19:54.305Z,37.25
2022-12-18T14:22:28.627Z,43.75
2022-12-18T14:25:17.903Z,39.88
2022-12-18T14:27:48.675Z,37.80
2022-12-18T14:30:32.857Z,37.50
2022-12-18T14:33:05.590Z,37.63
2022-12-18T14:35:38.767Z,35.22
2022-12-18T14:38:23.891Z,33.00
2022-12-18T14:40:57.094Z,33.63
2022-12-18T14:43:29.328Z,32.88
2022-12-18T14:45:58.303Z,37.72
2022-12-18T14:48:41.196Z,33.28
2022-12-18T14:51:20.500Z,35.00
2022-12-18T14:53:54.377Z,32.85
2022-12-18T14:56:26.670Z,36.20
2022-12-18T14:58:57.449Z,33.73
2022-12-18T15:01:29.239Z,33.78
2022-12-18T15:04:01.082Z,32.08
2022-12-18T15:06:33.081Z,34.75
2022-12-18T15:09:04.133Z,34.80
2022-12-18T15:11:45.730Z,34.55
2022-12-18T15:14:36.746Z,35.67
2022-12-18T15:17:08.401Z,33.28
2022-12-18T15:19:40.294Z,33.13
2022-12-18T15:22:24.355Z,34.28
2022-12-18T15:24:53.001Z,32.58
2022-12-18T15:27:29.253Z,34.85
2022-12-18T15:30:18.005Z,32.65
2022-12-18T15:32:46.885Z,34.30
2022-12-18T15:35:18.704Z,34.95
2022-12-18T15:37:47.340Z,34.15
2022-12-18T15:40:17.425Z,32.53
2022-12-18T15:43:08.168Z,33.58
2022-12-18T15:45:36.396Z,34.30
2022-12-18T15:48:22.968Z,35.85
2022-12-18T15:50:52.348Z,36.55
2022-12-18T15:53:21.042Z,38.45
2022-12-18T15:56:12.011Z,34.40
2022-12-18T15:58:40.390Z,34.38
2022-12-18T16:01:11.203Z,31.65
2022-12-18T16:03:41.227Z,31.45
2022-12-18T16:06:11.758Z,32.50
2022-12-18T16:08:39.817Z,31.30
2022-12-18T16:11:18.713Z,30.67
2022-12-18T16:13:48.120Z,31.60
2022-12-18T16:16:16.566Z,31.80
2022-12-18T16:18:46.448Z,31.55
2022-12-18T16:21:14.661Z,34.25
2022-12-18T16:23:43.043Z,33.88
2022-12-18T16:26:11.751Z,34.90
2022-12-18T16:28:43.837Z,35.40
2022-12-18T16:31:16.530Z,33.40
2022-12-18T16:33:46.247Z,33.60
2022-12-18T16:36:14.531Z,35.58
2022-12-18T16:38:43.022Z,35.78
2022-12-18T16:41:36.409Z,35.70
2022-12-18T16:44:05.383Z,36.03
2022-12-18T16:46:33.740Z,32.00
2022-12-18T16:49:03.646Z,32.22
2022-12-18T16:51:39.684Z,34.17
2022-12-18T16:54:11.721Z,31.80
2022-12-18T16:56:43.201Z,32.25
2022-12-18T16:59:13.272Z,32.30
2022-12-18T17:01:41.940Z,32.65
2022-12-18T17:04:11.795Z,34.38
2022-12-18T17:06:44.541Z,33.50
2022-12-18T17:09:15.651Z,34.33
2022-12-18T17:11:44.537Z,36.70
2022-12-18T17:14:17.131Z,35.85
2022-12-18T17:16:46.947Z,38.35
2022-12-18T17:19:17.741Z,34.47
2022-12-18T17:21:47.037Z,34.80
2022-12-18T17:24:15.212Z,34.33
2022-12-18T17:26:43.922Z,36.80
2022-12-18T17:29:13.918Z,34.80
2022-12-18T17:31:42.463Z,35.85
2022-12-18T17:34:12.684Z,36.15
2022-12-18T17:36:42.793Z,34.90
2022-12-18T17:39:19.815Z,34.92
2022-12-18T17:41:48.811Z,36.65
2022-12-18T17:44:18.355Z,37.33
2022-12-18T17:46:47.243Z,36.17
2022-12-18T17:49:15.657Z,39.40
2022-12-18T17:51:45.175Z,37.38
2022-12-18T17:54:13.370Z,37.25
2022-12-18T17:56:41.490Z,37.97
2022-12-18T17:59:10.158Z,37.20
2022-12-18T18:01:43.981Z,37.38
2022-12-18T18:04:13.895Z,37.25
2022-12-18T18:06:42.370Z,36.05
2022-12-18T18:09:16.653Z,37.85
2022-12-18T18:12:02.868Z,36.67
2022-12-18T18:14:32.018Z,36.97
2022-12-18T18:17:04.659Z,39.17
2022-12-18T18:19:34.429Z,40.10
2022-12-18T18:22:03.166Z,40.47
2022-12-18T18:24:35.778Z,41.13
2022-12-18T18:27:03.958Z,40.78
2022-12-18T18:29:32.157Z,40.53
2022-12-18T18:32:00.890Z,40.20
2022-12-18T18:34:31.032Z,40.25
2022-12-18T18:37:03.034Z,42.53
2022-12-18T18:39:31.356Z,42.08
2022-12-18T18:42:03.643Z,40.35
2022-12-18T18:44:32.247Z,41.40
2022-12-18T18:47:00.956Z,45.95
2022-12-18T18:49:31.832Z,43.05
2022-12-18T18:52:01.640Z,40.97
2022-12-18T18:54:31.050Z,39.97
2022-12-18T18:59:49.159Z,40.10
2022-12-18T19:02:18.476Z,41.25
2022-12-18T19:04:50.987Z,41.67
2022-12-18T19:10:04.580Z,41.33
2022-12-18T19:12:52.136Z,44.05
2022-12-18T19:15:21.956Z,44.78
2022-12-18T19:17:50.436Z,43.88
2022-12-18T19:20:19.526Z,46.72
2022-12-18T19:22:55.126Z,43.83
2022-12-18T19:25:38.438Z,44.03
2022-12-18T19:28:21.367Z,42.85
2022-12-18T19:30:56.073Z,43.65
2022-12-18T19:33:45.226Z,41.58
2022-12-18T19:36:21.212Z,39.80
2022-12-18T19:38:50.205Z,41.38
2022-12-18T19:41:19.509Z,41.90
2022-12-18T19:43:47.639Z,43.33
2022-12-18T19:46:19.901Z,40.55
2022-12-18T19:48:51.604Z,38.72
2022-12-18T19:51:22.322Z,40.28
2022-12-18T19:53:58.185Z,40.17
2022-12-18T19:56:29.580Z,39.03
2022-12-18T19:58:58.357Z,40.30
2022-12-18T20:01:29.035Z,38.30
2022-12-18T20:03:58.194Z,37.97
2022-12-18T20:06:30.298Z,38.65
2022-12-18T20:09:01.181Z,38.88
2022-12-18T20:11:32.550Z,40.20
2022-12-18T20:14:06.107Z,39.42
2022-12-18T20:16:37.902Z,38.15
2022-12-18T20:19:08.852Z,39.15
2022-12-18T20:21:38.014Z,38.10
2022-12-18T20:24:08.197Z,38.72
2022-12-18T20:26:36.553Z,37.78
2022-12-18T20:29:04.822Z,37.60
2022-12-18T20:31:32.979Z,39.78
2022-12-18T20:34:03.667Z,38.95
2022-12-18T20:36:34.315Z,40.00
2022-12-18T20:39:05.469Z,38.53
2022-12-18T20:41:38.019Z,38.95
2022-12-18T20:44:23.607Z,38.25
2022-12-18T20:46:57.351Z,37.50
2022-12-18T20:49:27.832Z,35.80
2022-12-18T20:51:58.313Z,36.53
2022-12-18T20:54:28.309Z,37.45
2022-12-18T20:56:57.644Z,35.35
2022-12-18T20:59:26.337Z,37.25
2022-12-18T21:01:57.298Z,38.70
2022-12-18T21:04:27.456Z,35.17
2022-12-18T21:07:00.486Z,36.22
2022-12-18T21:09:38.152Z,36.78
2022-12-18T21:12:28.843Z,35.55
2022-12-18T21:15:01.566Z,38.90
2022-12-18T21:17:30.444Z,36.10
2022-12-18T21:22:32.409Z,38.83
2022-12-18T21:25:03.789Z,36.78
2022-12-18T21:27:31.937Z,36.33
2022-12-18T21:30:00.475Z,36.42
2022-12-18T21:32:30.919Z,37.70
2022-12-18T21:35:03.153Z,34.85
2022-12-18T21:37:31.322Z,36.33
2022-12-18T21:39:59.866Z,36.47
2022-12-18T21:42:45.675Z,35.10
2022-12-18T21:45:13.766Z,33.83
2022-12-18T21:47:41.879Z,34.60
2022-12-18T21:50:11.657Z,36.25
2022-12-18T21:52:39.747Z,35.83
2022-12-18T21:55:10.121Z,34.17
2022-12-18T21:57:39.510Z,35.05
2022-12-18T22:00:16.840Z,33.80
2022-12-18T22:03:15.457Z,34.43
2022-12-18T22:05:39.581Z,35.30
2022-12-18T22:08:07.896Z,34.47
2022-12-18T22:10:39.123Z,34.55
2022-12-18T22:13:08.179Z,33.47
2022-12-18T22:15:36.399Z,33.85
2022-12-18T22:18:04.861Z,33.30
2022-12-18T22:20:33.112Z,33.45
2022-12-18T22:23:06.085Z,32.75
2022-12-18T22:25:38.406Z,33.28
2022-12-18T22:28:25.622Z,34.35
2022-12-18T22:30:59.302Z,33.60
2022-12-18T22:33:28.485Z,32.67
2022-12-18T22:35:57.305Z,33.08
2022-12-18T22:38:27.195Z,33.72
2022-12-18T22:40:56.328Z,32.25
2022-12-18T22:43:25.047Z,31.23
2022-12-18T22:45:54.700Z,32.80
2022-12-18T22:48:33.840Z,39.63
2022-12-18T22:51:02.039Z,31.98
2022-12-18T22:53:31.482Z,31.33
2022-12-18T22:56:02.165Z,28.15
2022-12-18T22:58:30.691Z,30.25
2022-12-18T23:00:58.785Z,29.95
2022-12-18T23:03:27.247Z,30.75
2022-12-18T23:06:02.793Z,30.30
2022-12-18T23:08:32.653Z,31.55
2022-12-18T23:11:00.959Z,30.98
2022-12-18T23:13:29.723Z,30.95
2022-12-18T23:15:58.038Z,29.65
2022-12-18T23:18:26.559Z,29.42
2022-12-18T23:20:54.741Z,30.38
2022-12-18T23:23:24.882Z,30.35
2022-12-18T23:26:01.746Z,28.80
2022-12-18T23:28:29.921Z,29.67
2022-12-18T23:31:06.428Z,29.75
2022-12-18T23:33:35.038Z,30.08
2022-12-18T23:36:03.978Z,29.15
2022-12-18T23:38:33.551Z,29.40
2022-12-18T23:41:08.352Z,28.02
2022-12-18T23:43:36.509Z,29.70
2022-12-18T23:46:05.180Z,31.48
2022-12-18T23:48:33.311Z,29.45
2022-12-18T23:51:06.649Z,28.30
2022-12-18T23:53:34.872Z,28.52
2022-12-18T23:56:08.853Z,28.38
2022-12-18T23:58:37.820Z,28.67
